sensor_id;sensor_type;location;lat;lon;timestamp;P1;durP1;ratioP1;P2;durP2;ratioP2
19907;SDS011;10116;53.112;7.356;2022-12-18T00:01:01;19.10;;;17.10;;
19907;SDS011;10116;53.112;7.356;2022-12-18T00:03:34;21.73;;;17.67;;
19907;SDS011;10116;53.112;7.356;2022-12-18T00:06:00;20.67;;;17.53;;
19907;SDS011;10116;53.112;7.356;2022-12-18T00:08:27;21.17;;;17.00;;
19907;SDS011;10116;53.112;7.356;2022-12-18T00:10:53;21.93;;;17.70;;
19907;SDS011;10116;53.112;7.356;2022-12-18T00:13:18;21.40;;;17.90;;
19907;SDS011;10116;53.112;7.356;2022-12-18T00:15:44;19.97;;;17.30;;
19907;SDS011;10116;53.112;7.356;2022-12-18T00:18:10;21.43;;;18.20;;
19907;SDS011;10116;53.112;7.356;2022-12-18T00:20:39;21.00;;;18.23;;
19907;SDS011;10116;53.112;7.356;2022-12-18T00:23:05;18.33;;;16.53;;
19907;SDS011;10116;53.112;7.356;2022-12-18T00:25:32;20.67;;;17.23;;
19907;SDS011;10116;53.112;7.356;2022-12-18T00:27:59;21.50;;;18.30;;
19907;SDS011;10116;53.112;7.356;2022-12-18T00:30:25;21.17;;;17.70;;
19907;SDS011;10116;53.112;7.356;2022-12-18T00:32:51;20.90;;;16.93;;
19907;SDS011;10116;53.112;7.356;2022-12-18T00:35:17;20.17;;;16.97;;
19907;SDS011;10116;53.112;7.356;2022-12-18T00:37:42;23.40;;;17.27;;
19907;SDS011;10116;53.112;7.356;2022-12-18T00:40:08;20.57;;;17.67;;
19907;SDS011;10116;53.112;7.356;2022-12-18T00:42:37;19.07;;;17.00;;
19907;SDS011;10116;53.112;7.356;2022-12-18T00:45:28;21.50;;;17.90;;
19907;SDS011;10116;53.112;7.356;2022-12-18T00:47:55;21.40;;;16.90;;
19907;SDS011;10116;53.112;7.356;2022-12-18T00:50:21;20.33;;;16.50;;
19907;SDS011;10116;53.112;7.356;2022-12-18T00:52:48;20.27;;;16.83;;
19907;SDS011;10116;53.112;7.356;2022-12-18T00:55:14;21.27;;;17.40;;
19907;SDS011;10116;53.112;7.356;2022-12-18T00:57:40;21.80;;;18.40;;
19907;SDS011;10116;53.112;7.356;2022-12-18T01:00:06;23.07;;;18.80;;
19907;SDS011;10116;53.112;7.356;2022-12-18T01:02:33;22.00;;;17.80;;
19907;SDS011;10116;53.112;7.356;2022-12-18T01:04:59;20.50;;;17.53;;
19907;SDS011;10116;53.112;7.356;2022-12-18T01:07:25;22.37;;;17.43;;
19907;SDS011;10116;53.112;7.356;2022-12-18T01:09:51;21.17;;;17.10;;
19907;SDS011;10116;53.112;7.356;2022-12-18T01:12:17;21.93;;;17.90;;
19907;SDS011;10116;53.112;7.356;2022-12-18T01:14:42;24.33;;;19.30;;
19907;SDS011;10116;53.112;7.356;2022-12-18T01:17:08;22.57;;;18.33;;
19907;SDS011;10116;53.112;7.356;2022-12-18T01:19:33;24.40;;;18.83;;
19907;SDS011;10116;53.112;7.356;2022-12-18T01:21:59;20.80;;;17.13;;
19907;SDS011;10116;53.112;7.356;2022-12-18T01:24:25;23.07;;;18.30;;
19907;SDS011;10116;53.112;7.356;2022-12-18T01:26:50;23.10;;;18.53;;
19907;SDS011;10116;53.112;7.356;2022-12-18T01:29:16;23.13;;;19.07;;
19907;SDS011;10116;53.112;7.356;2022-12-18T01:31:41;23.47;;;18.40;;
19907;SDS011;10116;53.112;7.356;2022-12-18T01:34:08;23.87;;;19.13;;
19907;SDS011;10116;53.112;7.356;2022-12-18T01:36:35;22.37;;;18.20;;
19907;SDS011;10116;53.112;7.356;2022-12-18T01:39:03;21.70;;;18.50;;
19907;SDS011;10116;53.112;7.356;2022-12-18T01:41:31;26.23;;;19.03;;
19907;SDS011;10116;53.112;7.356;2022-12-18T01:47:37;23.90;;;19.10;;
19907;SDS011;10116;53.112;7.356;2022-12-18T01:50:15;22.63;;;18.30;;
19907;SDS011;10116;53.112;7.356;2022-12-18T01:52:52;23.90;;;18.77;;
19907;SDS011;10116;53.112;7.356;2022-12-18T01:55:22;25.17;;;18.97;;
19907;SDS011;10116;53.112;7.356;2022-12-18T01:57:50;25.50;;;19.20;;
19907;SDS011;10116;53.112;7.356;2022-12-18T02:00:19;26.10;;;18.63;;
19907;SDS011;10116;53.112;7.356;2022-12-18T02:02:47;26.70;;;19.00;;
19907;SDS011;10116;53.112;7.356;2022-12-18T02:05:15;24.83;;;19.10;;
19907;SDS011;10116;53.112;7.356;2022-12-18T02:10:44;23.53;;;18.17;;
19907;SDS011;10116;53.112;7.356;2022-12-18T02:13:21;26.07;;;19.50;;
19907;SDS011;10116;53.112;7.356;2022-12-18T02:18:38;25.83;;;18.90;;
19907;SDS011;10116;53.112;7.356;2022-12-18T02:26:50;22.77;;;16.83;;
19907;SDS011;10116;53.112;7.356;2022-12-18T02:29:22;21.10;;;17.20;;
19907;SDS011;10116;53.112;7.356;2022-12-18T02:31:54;26.53;;;18.80;;
19907;SDS011;10116;53.112;7.356;2022-12-18T02:34:24;23.93;;;17.63;;
19907;SDS011;10116;53.112;7.356;2022-12-18T02:36:53;27.80;;;17.97;;
19907;SDS011;10116;53.112;7.356;2022-12-18T02:39:20;23.97;;;17.53;;
19907;SDS011;10116;53.112;7.356;2022-12-18T02:41:48;20.73;;;16.70;;
19907;SDS011;10116;53.112;7.356;2022-12-18T02:44:15;20.70;;;16.63;;
19907;SDS011;10116;53.112;7.356;2022-12-18T02:46:42;21.47;;;16.93;;
19907;SDS011;10116;53.112;7.356;2022-12-18T02:51:47;19.87;;;16.23;;
19907;SDS011;10116;53.112;7.356;2022-12-18T02:54:42;21.03;;;16.97;;
19907;SDS011;10116;53.112;7.356;2022-12-18T02:57:17;23.33;;;17.80;;
19907;SDS011;10116;53.112;7.356;2022-12-18T03:02:25;21.63;;;17.20;;
19907;SDS011;10116;53.112;7.356;2022-12-18T03:05:04;19.73;;;15.80;;
19907;SDS011;10116;53.112;7.356;2022-12-18T03:07:55;21.37;;;16.87;;
19907;SDS011;10116;53.112;7.356;2022-12-18T03:10:29;19.73;;;16.50;;
19907;SDS011;10116;53.112;7.356;2022-12-18T03:13:03;21.83;;;16.90;;
19907;SDS011;10116;53.112;7.356;2022-12-18T03:15:35;22.30;;;17.73;;
19907;SDS011;10116;53.112;7.356;2022-12-18T03:18:13;20.80;;;16.17;;
19907;SDS011;10116;53.112;7.356;2022-12-18T03:20:48;19.30;;;15.50;;
19907;SDS011;10116;53.112;7.356;2022-12-18T03:23:17;19.40;;;16.60;;
19907;SDS011;10116;53.112;7.356;2022-12-18T03:25:46;21.90;;;16.70;;
19907;SDS011;10116;53.112;7.356;2022-12-18T03:28:17;20.20;;;16.37;;
19907;SDS011;10116;53.112;7.356;2022-12-18T03:30:46;20.03;;;16.63;;
19907;SDS011;10116;53.112;7.356;2022-12-18T03:33:19;19.70;;;15.90;;
19907;SDS011;10116;53.112;7.356;2022-12-18T03:35:52;19.90;;;15.63;;
19907;SDS011;10116;53.112;7.356;2022-12-18T03:38:17;20.90;;;16.73;;
19907;SDS011;10116;53.112;7.356;2022-12-18T03:43:27;21.70;;;16.37;;
19907;SDS011;10116;53.112;7.356;2022-12-18T03:46:22;21.37;;;16.87;;
19907;SDS011;10116;53.112;7.356;2022-12-18T03:51:52;19.77;;;15.50;;
19907;SDS011;10116;53.112;7.356;2022-12-18T03:54:25;19.50;;;15.43;;
19907;SDS011;10116;53.112;7.356;2022-12-18T03:56:57;19.33;;;15.33;;
19907;SDS011;10116;53.112;7.356;2022-12-18T03:59:28;16.97;;;14.17;;
19907;SDS011;10116;53.112;7.356;2022-12-18T04:01:55;20.23;;;16.20;;
19907;SDS011;10116;53.112;7.356;2022-12-18T04:04:23;19.13;;;15.73;;
19907;SDS011;10116;53.112;7.356;2022-12-18T04:06:50;19.77;;;15.70;;
19907;SDS011;10116;53.112;7.356;2022-12-18T04:09:17;22.20;;;17.63;;
19907;SDS011;10116;53.112;7.356;2022-12-18T04:11:44;19.93;;;16.20;;
19907;SDS011;10116;53.112;7.356;2022-12-18T04:14:11;19.67;;;15.43;;
19907;SDS011;10116;53.112;7.356;2022-12-18T04:16:37;19.37;;;15.77;;
19907;SDS011;10116;53.112;7.356;2022-12-18T04:19:03;18.80;;;15.67;;
19907;SDS011;10116;53.112;7.356;2022-12-18T04:21:29;18.90;;;14.97;;
19907;SDS011;10116;53.112;7.356;2022-12-18T04:23:54;20.80;;;15.00;;
19907;SDS011;10116;53.112;7.356;2022-12-18T04:26:20;19.07;;;14.73;;
19907;SDS011;10116;53.112;7.356;2022-12-18T04:28:46;21.63;;;15.37;;
19907;SDS011;10116;53.112;7.356;2022-12-18T04:31:11;18.50;;;15.40;;
19907;SDS011;10116;53.112;7.356;2022-12-18T04:33:37;16.00;;;13.70;;
19907;SDS011;10116;53.112;7.356;2022-12-18T04:36:03;15.33;;;13.73;;
19907;SDS011;10116;53.112;7.356;2022-12-18T04:38:29;17.47;;;14.03;;
19907;SDS011;10116;53.112;7.356;2022-12-18T04:40:55;15.40;;;13.17;;
19907;SDS011;10116;53.112;7.356;2022-12-18T04:43:20;17.77;;;14.07;;
19907;SDS011;10116;53.112;7.356;2022-12-18T04:45:46;15.47;;;13.07;;
19907;SDS011;10116;53.112;7.356;2022-12-18T04:48:11;17.40;;;14.87;;
19907;SDS011;10116;53.112;7.356;2022-12-18T04:50:37;15.33;;;12.83;;
19907;SDS011;10116;53.112;7.356;2022-12-18T04:53:03;14.97;;;13.33;;
19907;SDS011;10116;53.112;7.356;2022-12-18T04:55:29;15.93;;;12.90;;
19907;SDS011;10116;53.112;7.356;2022-12-18T04:57:54;15.83;;;13.70;;
19907;SDS011;10116;53.112;7.356;2022-12-18T05:00:20;17.07;;;14.43;;
19907;SDS011;10116;53.112;7.356;2022-12-18T05:02:46;15.53;;;13.20;;
19907;SDS011;10116;53.112;7.356;2022-12-18T05:05:11;16.50;;;13.47;;
19907;SDS011;10116;53.112;7.356;2022-12-18T05:07:37;15.33;;;13.23;;
19907;SDS011;10116;53.112;7.356;2022-12-18T05:10:06;16.60;;;13.80;;
19907;SDS011;10116;53.112;7.356;2022-12-18T05:12:32;15.13;;;13.13;;
19907;SDS011;10116;53.112;7.356;2022-12-18T05:14:58;15.13;;;12.67;;
19907;SDS011;10116;53.112;7.356;2022-12-18T05:17:23;14.40;;;12.43;;
19907;SDS011;10116;53.112;7.356;2022-12-18T05:19:49;16.00;;;12.87;;
19907;SDS011;10116;53.112;7.356;2022-12-18T05:22:14;18.00;;;12.67;;
19907;SDS011;10116;53.112;7.356;2022-12-18T05:24:40;15.73;;;12.97;;
19907;SDS011;10116;53.112;7.356;2022-12-18T05:27:06;13.93;;;12.03;;
19907;SDS011;10116;53.112;7.356;2022-12-18T05:29:31;15.57;;;11.43;;
19907;SDS011;10116;53.112;7.356;2022-12-18T05:31:57;14.50;;;12.37;;
19907;SDS011;10116;53.112;7.356;2022-12-18T05:34:22;15.23;;;12.90;;
19907;SDS011;10116;53.112;7.356;2022-12-18T05:36:48;12.70;;;11.27;;
19907;SDS011;10116;53.112;7.356;2022-12-18T05:39:13;14.50;;;11.87;;
19907;SDS011;10116;53.112;7.356;2022-12-18T05:41:39;12.70;;;10.90;;
19907;SDS011;10116;53.112;7.356;2022-12-18T05:44:05;12.73;;;11.17;;
19907;SDS011;10116;53.112;7.356;2022-12-18T05:46:30;14.67;;;11.50;;
19907;SDS011;10116;53.112;7.356;2022-12-18T05:48:58;13.30;;;10.90;;
19907;SDS011;10116;53.112;7.356;2022-12-18T05:51:25;12.40;;;10.60;;
19907;SDS011;10116;53.112;7.356;2022-12-18T05:53:51;12.00;;;10.70;;
19907;SDS011;10116;53.112;7.356;2022-12-18T05:56:18;12.13;;;10.77;;
19907;SDS011;10116;53.112;7.356;2022-12-18T05:58:47;12.83;;;10.57;;
19907;SDS011;10116;53.112;7.356;2022-12-18T06:01:17;11.97;;;10.43;;
19907;SDS011;10116;53.112;7.356;2022-12-18T06:03:44;12.77;;;11.43;;
19907;SDS011;10116;53.112;7.356;2022-12-18T06:06:18;12.83;;;11.07;;
19907;SDS011;10116;53.112;7.356;2022-12-18T06:08:46;12.80;;;11.37;;
19907;SDS011;10116;53.112;7.356;2022-12-18T06:11:12;11.83;;;10.43;;
19907;SDS011;10116;53.112;7.356;2022-12-18T06:13:38;12.27;;;10.87;;
19907;SDS011;10116;53.112;7.356;2022-12-18T06:16:04;11.27;;;10.17;;
19907;SDS011;10116;53.112;7.356;2022-12-18T06:18:31;11.63;;;10.53;;
19907;SDS011;10116;53.112;7.356;2022-12-18T06:20:57;12.20;;;11.00;;
19907;SDS011;10116;53.112;7.356;2022-12-18T06:23:24;11.63;;;10.43;;
19907;SDS011;10116;53.112;7.356;2022-12-18T06:25:50;14.40;;;11.23;;
19907;SDS011;10116;53.112;7.356;2022-12-18T06:28:15;12.83;;;10.20;;
19907;SDS011;10116;53.112;7.356;2022-12-18T06:30:44;11.63;;;10.50;;
19907;SDS011;10116;53.112;7.356;2022-12-18T06:33:11;11.77;;;10.57;;
19907;SDS011;10116;53.112;7.356;2022-12-18T06:35:36;11.53;;;10.30;;
19907;SDS011;10116;53.112;7.356;2022-12-18T06:38:02;12.23;;;10.80;;
19907;SDS011;10116;53.112;7.356;2022-12-18T06:40:28;11.67;;;10.47;;
19907;SDS011;10116;53.112;7.356;2022-12-18T06:42:54;12.53;;;10.80;;
19907;SDS011;10116;53.112;7.356;2022-12-18T06:45:19;12.17;;;10.27;;
19907;SDS011;10116;53.112;7.356;2022-12-18T06:47:45;11.47;;;10.27;;
19907;SDS011;10116;53.112;7.356;2022-12-18T06:50:11;12.63;;;10.30;;
19907;SDS011;10116;53.112;7.356;2022-12-18T06:52:37;11.80;;;9.87;;
19907;SDS011;10116;53.112;7.356;2022-12-18T06:55:05;13.70;;;11.50;;
19907;SDS011;10116;53.112;7.356;2022-12-18T06:57:34;9.93;;;8.93;;
19907;SDS011;10116;53.112;7.356;2022-12-18T07:00:00;11.50;;;10.30;;
19907;SDS011;10116;53.112;7.356;2022-12-18T07:02:26;12.60;;;11.30;;
19907;SDS011;10116;53.112;7.356;2022-12-18T07:04:51;11.93;;;10.63;;
19907;SDS011;10116;53.112;7.356;2022-12-18T07:07:17;12.23;;;11.00;;
19907;SDS011;10116;53.112;7.356;2022-12-18T07:09:43;11.63;;;10.27;;
19907;SDS011;10116;53.112;7.356;2022-12-18T07:12:08;11.53;;;10.07;;
19907;SDS011;10116;53.112;7.356;2022-12-18T07:14:34;10.50;;;9.50;;
19907;SDS011;10116;53.112;7.356;2022-12-18T07:16:59;13.30;;;10.10;;
19907;SDS011;10116;53.112;7.356;2022-12-18T07:19:25;10.40;;;9.40;;
19907;SDS011;10116;53.112;7.356;2022-12-18T07:21:51;11.87;;;10.10;;
19907;SDS011;10116;53.112;7.356;2022-12-18T07:24:16;12.57;;;10.83;;
19907;SDS011;10116;53.112;7.356;2022-12-18T07:26:42;12.60;;;11.30;;
19907;SDS011;10116;53.112;7.356;2022-12-18T07:29:11;11.30;;;10.13;;
19907;SDS011;10116;53.112;7.356;2022-12-18T07:31:36;12.00;;;10.50;;
19907;SDS011;10116;53.112;7.356;2022-12-18T07:34:02;11.47;;;10.30;;
19907;SDS011;10116;53.112;7.356;2022-12-18T07:36:27;11.13;;;10.00;;
19907;SDS011;10116;53.112;7.356;2022-12-18T07:38:53;10.47;;;9.43;;
19907;SDS011;10116;53.112;7.356;2022-12-18T07:41:19;11.50;;;10.33;;
19907;SDS011;10116;53.112;7.356;2022-12-18T07:43:45;11.53;;;10.23;;
19907;SDS011;10116;53.112;7.356;2022-12-18T07:46:11;11.17;;;10.03;;
19907;SDS011;10116;53.112;7.356;2022-12-18T07:48:41;11.57;;;9.70;;
19907;SDS011;10116;53.112;7.356;2022-12-18T07:51:08;11.30;;;10.10;;
19907;SDS011;10116;53.112;7.356;2022-12-18T07:53:34;10.70;;;9.50;;
19907;SDS011;10116;53.112;7.356;2022-12-18T07:56:05;10.13;;;9.13;;
19907;SDS011;10116;53.112;7.356;2022-12-18T07:58:33;9.80;;;8.90;;
19907;SDS011;10116;53.112;7.356;2022-12-18T08:01:05;9.73;;;8.83;;
19907;SDS011;10116;53.112;7.356;2022-12-18T08:03:32;10.73;;;9.63;;
19907;SDS011;10116;53.112;7.356;2022-12-18T08:06:02;10.47;;;9.47;;
19907;SDS011;10116;53.112;7.356;2022-12-18T08:08:30;10.07;;;9.03;;
19907;SDS011;10116;53.112;7.356;2022-12-18T08:10:56;11.20;;;10.03;;
19907;SDS011;10116;53.112;7.356;2022-12-18T08:13:22;10.73;;;8.90;;
19907;SDS011;10116;53.112;7.356;2022-12-18T08:15:57;9.90;;;8.90;;
19907;SDS011;10116;53.112;7.356;2022-12-18T08:18:25;9.97;;;8.97;;
19907;SDS011;10116;53.112;7.356;2022-12-18T08:20:51;11.00;;;9.80;;
19907;SDS011;10116;53.112;7.356;2022-12-18T08:23:17;10.47;;;9.37;;
19907;SDS011;10116;53.112;7.356;2022-12-18T08:25:43;10.47;;;9.00;;
19907;SDS011;10116;53.112;7.356;2022-12-18T08:28:09;10.53;;;9.53;;
19907;SDS011;10116;53.112;7.356;2022-12-18T08:30:35;11.57;;;9.63;;
19907;SDS011;10116;53.112;7.356;2022-12-18T08:33:00;10.03;;;8.60;;
19907;SDS011;10116;53.112;7.356;2022-12-18T08:35:26;9.83;;;8.83;;
19907;SDS011;10116;53.112;7.356;2022-12-18T08:37:52;10.33;;;9.27;;
19907;SDS011;10116;53.112;7.356;2022-12-18T08:40:17;11.00;;;8.57;;
19907;SDS011;10116;53.112;7.356;2022-12-18T08:42:43;8.90;;;8.10;;
19907;SDS011;10116;53.112;7.356;2022-12-18T08:45:27;9.30;;;8.40;;
19907;SDS011;10116;53.112;7.356;2022-12-18T08:47:53;9.00;;;8.17;;
19907;SDS011;10116;53.112;7.356;2022-12-18T08:50:19;10.23;;;8.70;;
19907;SDS011;10116;53.112;7.356;2022-12-18T08:52:45;10.00;;;8.83;;
19907;SDS011;10116;53.112;7.356;2022-12-18T08:55:10;8.97;;;8.03;;
19907;SDS011;10116;53.112;7.356;2022-12-18T08:57:36;11.00;;;8.80;;
19907;SDS011;10116;53.112;7.356;2022-12-18T09:00:03;10.00;;;7.37;;
19907;SDS011;10116;53.112;7.356;2022-12-18T09:02:29;13.10;;;7.73;;
19907;SDS011;10116;53.112;7.356;2022-12-18T09:04:54;8.03;;;7.20;;
19907;SDS011;10116;53.112;7.356;2022-12-18T09:07:20;8.23;;;7.43;;
19907;SDS011;10116;53.112;7.356;2022-12-18T09:09:45;10.63;;;8.13;;
19907;SDS011;10116;53.112;7.356;2022-12-18T09:12:11;7.80;;;7.00;;
19907;SDS011;10116;53.112;7.356;2022-12-18T09:14:36;8.03;;;7.23;;
19907;SDS011;10116;53.112;7.356;2022-12-18T09:17:02;9.00;;;6.97;;
19907;SDS011;10116;53.112;7.356;2022-12-18T09:19:28;7.60;;;6.90;;
19907;SDS011;10116;53.112;7.356;2022-12-18T09:21:53;8.00;;;6.83;;
19907;SDS011;10116;53.112;7.356;2022-12-18T09:24:22;7.03;;;6.43;;
19907;SDS011;10116;53.112;7.356;2022-12-18T09:26:48;8.00;;;7.20;;
19907;SDS011;10116;53.112;7.356;2022-12-18T09:29:14;9.50;;;7.53;;
19907;SDS011;10116;53.112;7.356;2022-12-18T09:31:40;7.60;;;6.90;;
19907;SDS011;10116;53.112;7.356;2022-12-18T09:34:06;7.43;;;6.73;;
19907;SDS011;10116;53.112;7.356;2022-12-18T09:36:32;6.70;;;6.10;;
19907;SDS011;10116;53.112;7.356;2022-12-18T09:38:57;6.90;;;6.30;;
19907;SDS011;10116;53.112;7.356;2022-12-18T09:44:05;6.67;;;6.07;;
19907;SDS011;10116;53.112;7.356;2022-12-18T09:46:43;7.00;;;6.40;;
19907;SDS011;10116;53.112;7.356;2022-12-18T09:49:28;7.00;;;6.10;;
19907;SDS011;10116;53.112;7.356;2022-12-18T09:51:59;5.73;;;5.23;;
19907;SDS011;10116;53.112;7.356;2022-12-18T09:54:38;14.30;;;6.27;;
19907;SDS011;10116;53.112;7.356;2022-12-18T09:57:42;11.47;;;6.00;;
19907;SDS011;10116;53.112;7.356;2022-12-18T10:00:06;12.40;;;6.33;;
19907;SDS011;10116;53.112;7.356;2022-12-18T10:02:43;12.00;;;6.00;;
19907;SDS011;10116;53.112;7.356;2022-12-18T10:08:02;18.37;;;6.20;;
19907;SDS011;10116;53.112;7.356;2022-12-18T10:10:48;14.27;;;6.63;;
19907;SDS011;10116;53.112;7.356;2022-12-18T10:13:21;12.33;;;6.47;;
19907;SDS011;10116;53.112;7.356;2022-12-18T10:18:45;13.60;;;5.80;;
19907;SDS011;10116;53.112;7.356;2022-12-18T10:21:20;13.07;;;5.83;;
19907;SDS011;10116;53.112;7.356;2022-12-18T10:23:54;6.80;;;5.20;;
19907;SDS011;10116;53.112;7.356;2022-12-18T10:26:28;6.83;;;5.30;;
19907;SDS011;10116;53.112;7.356;2022-12-18T10:28:56;6.33;;;5.40;;
19907;SDS011;10116;53.112;7.356;2022-12-18T10:31:23;7.00;;;5.13;;
19907;SDS011;10116;53.112;7.356;2022-12-18T10:33:50;6.30;;;4.63;;
19907;SDS011;10116;53.112;7.356;2022-12-18T10:36:15;7.97;;;5.63;;
19907;SDS011;10116;53.112;7.356;2022-12-18T10:38:41;6.20;;;4.73;;
19907;SDS011;10116;53.112;7.356;2022-12-18T10:43:42;5.77;;;5.13;;
19907;SDS011;10116;53.112;7.356;2022-12-18T10:48:34;5.30;;;4.83;;
19907;SDS011;10116;53.112;7.356;2022-12-18T10:51:01;6.63;;;5.10;;
19907;SDS011;10116;53.112;7.356;2022-12-18T10:53:29;6.07;;;5.57;;
19907;SDS011;10116;53.112;7.356;2022-12-18T10:56:00;7.10;;;5.90;;
19907;SDS011;10116;53.112;7.356;2022-12-18T11:01:16;16.63;;;8.73;;
19907;SDS011;10116;53.112;7.356;2022-12-18T11:08:42;9.53;;;8.03;;
19907;SDS011;10116;53.112;7.356;2022-12-18T11:11:42;10.43;;;7.30;;
19907;SDS011;10116;53.112;7.356;2022-12-18T11:14:03;9.10;;;6.93;;
19907;SDS011;10116;53.112;7.356;2022-12-18T11:16:36;9.80;;;7.03;;
19907;SDS011;10116;53.112;7.356;2022-12-18T11:25:01;8.70;;;6.20;;
19907;SDS011;10116;53.112;7.356;2022-12-18T11:27:30;7.27;;;6.23;;
19907;SDS011;10116;53.112;7.356;2022-12-18T11:30:13;6.60;;;5.67;;
19907;SDS011;10116;53.112;7.356;2022-12-18T11:32:47;6.40;;;5.80;;
19907;SDS011;10116;53.112;7.356;2022-12-18T11:38:00;5.90;;;5.40;;
19907;SDS011;10116;53.112;7.356;2022-12-18T11:40:37;5.77;;;5.30;;
19907;SDS011;10116;53.112;7.356;2022-12-18T11:43:10;6.20;;;5.50;;
19907;SDS011;10116;53.112;7.356;2022-12-18T11:45:42;5.53;;;5.03;;
19907;SDS011;10116;53.112;7.356;2022-12-18T11:48:15;6.27;;;5.67;;
19907;SDS011;10116;53.112;7.356;2022-12-18T11:50:55;6.20;;;5.60;;
19907;SDS011;10116;53.112;7.356;2022-12-18T11:53:27;5.70;;;5.07;;
19907;SDS011;10116;53.112;7.356;2022-12-18T12:21:03;6.33;;;5.73;;
19907;SDS011;10116;53.112;7.356;2022-12-18T12:23:57;6.27;;;5.70;;
19907;SDS011;10116;53.112;7.356;2022-12-18T12:32:07;9.27;;;5.33;;
19907;SDS011;10116;53.112;7.356;2022-12-18T12:34:54;5.83;;;5.30;;
19907;SDS011;10116;53.112;7.356;2022-12-18T12:39:58;5.97;;;5.37;;
19907;SDS011;10116;53.112;7.356;2022-12-18T12:42:30;5.20;;;4.70;;
19907;SDS011;10116;53.112;7.356;2022-12-18T12:45:23;5.10;;;4.70;;
19907;SDS011;10116;53.112;7.356;2022-12-18T12:47:56;5.07;;;4.63;;
19907;SDS011;10116;53.112;7.356;2022-12-18T12:50:24;5.03;;;4.53;;
19907;SDS011;10116;53.112;7.356;2022-12-18T12:52:51;6.07;;;4.93;;
19907;SDS011;10116;53.112;7.356;2022-12-18T12:55:21;5.27;;;4.80;;
19907;SDS011;10116;53.112;7.356;2022-12-18T12:58:14;5.43;;;4.93;;
19907;SDS011;10116;53.112;7.356;2022-12-18T13:00:53;5.70;;;5.20;;
19907;SDS011;10116;53.112;7.356;2022-12-18T13:06:28;5.80;;;5.30;;
19907;SDS011;10116;53.112;7.356;2022-12-18T13:09:02;5.17;;;4.67;;
19907;SDS011;10116;53.112;7.356;2022-12-18T13:14:31;4.93;;;4.53;;
19907;SDS011;10116;53.112;7.356;2022-12-18T13:17:30;5.97;;;5.20;;
19907;SDS011;10116;53.112;7.356;2022-12-18T13:25:27;5.97;;;5.37;;
19907;SDS011;10116;53.112;7.356;2022-12-18T13:35:42;5.03;;;4.63;;
19907;SDS011;10116;53.112;7.356;2022-12-18T13:38:39;4.53;;;4.23;;
19907;SDS011;10116;53.112;7.356;2022-12-18T13:43:43;5.20;;;4.67;;
19907;SDS011;10116;53.112;7.356;2022-12-18T13:51:42;5.10;;;4.60;;
19907;SDS011;10116;53.112;7.356;2022-12-18T13:54:24;6.00;;;5.47;;
19907;SDS011;10116;53.112;7.356;2022-12-18T13:56:55;4.80;;;4.50;;
19907;SDS011;10116;53.112;7.356;2022-12-18T13:59:24;5.10;;;4.70;;
19907;SDS011;10116;53.112;7.356;2022-12-18T14:01:58;5.00;;;4.60;;
19907;SDS011;10116;53.112;7.356;2022-12-18T14:06:58;5.10;;;4.70;;
19907;SDS011;10116;53.112;7.356;2022-12-18T14:09:30;5.13;;;4.63;;
19907;SDS011;10116;53.112;7.356;2022-12-18T14:12:05;5.27;;;4.87;;
19907;SDS011;10116;53.112;7.356;2022-12-18T14:14:50;5.20;;;4.80;;
19907;SDS011;10116;53.112;7.356;2022-12-18T14:17:17;4.40;;;4.10;;
19907;SDS011;10116;53.112;7.356;2022-12-18T14:19:44;4.73;;;4.33;;
19907;SDS011;10116;53.112;7.356;2022-12-18T14:22:24;4.77;;;4.33;;
19907;SDS011;10116;53.112;7.356;2022-12-18T14:27:41;5.27;;;4.87;;
19907;SDS011;10116;53.112;7.356;2022-12-18T14:30:31;5.43;;;4.93;;
19907;SDS011;10116;53.112;7.356;2022-12-18T14:33:09;4.63;;;4.23;;
19907;SDS011;10116;53.112;7.356;2022-12-18T14:35:41;4.73;;;4.40;;
19907;SDS011;10116;53.112;7.356;2022-12-18T14:38:27;4.57;;;4.17;;
19907;SDS011;10116;53.112;7.356;2022-12-18T14:41:04;5.10;;;4.70;;
19907;SDS011;10116;53.112;7.356;2022-12-18T14:43:32;5.43;;;4.93;;
19907;SDS011;10116;53.112;7.356;2022-12-18T14:45:59;4.47;;;4.10;;
19907;SDS011;10116;53.112;7.356;2022-12-18T14:48:39;4.40;;;4.10;;
19907;SDS011;10116;53.112;7.356;2022-12-18T14:53:43;5.13;;;4.73;;
19907;SDS011;10116;53.112;7.356;2022-12-18T14:56:21;4.60;;;4.20;;
19907;SDS011;10116;53.112;7.356;2022-12-18T14:58:52;4.20;;;3.90;;
19907;SDS011;10116;53.112;7.356;2022-12-18T15:04:29;4.53;;;4.13;;
19907;SDS011;10116;53.112;7.356;2022-12-18T15:10:31;4.50;;;4.20;;
19907;SDS011;10116;53.112;7.356;2022-12-18T15:12:42;4.40;;;4.10;;
19907;SDS011;10116;53.112;7.356;2022-12-18T15:20:31;4.60;;;4.30;;
19907;SDS011;10116;53.112;7.356;2022-12-18T15:23:23;4.50;;;4.20;;
19907;SDS011;10116;53.112;7.356;2022-12-18T15:25:56;4.40;;;4.10;;
19907;SDS011;10116;53.112;7.356;2022-12-18T15:30:59;4.80;;;4.40;;
19907;SDS011;10116;53.112;7.356;2022-12-18T15:36:20;3.53;;;3.13;;
19907;SDS011;10116;53.112;7.356;2022-12-18T15:38:49;3.87;;;3.57;;
19907;SDS011;10116;53.112;7.356;2022-12-18T15:41:16;3.97;;;3.57;;
19907;SDS011;10116;53.112;7.356;2022-12-18T15:43:43;4.23;;;3.83;;
19907;SDS011;10116;53.112;7.356;2022-12-18T15:46:13;4.07;;;3.77;;
19907;SDS011;10116;53.112;7.356;2022-12-18T15:48:41;4.07;;;3.77;;
19907;SDS011;10116;53.112;7.356;2022-12-18T15:51:12;3.67;;;3.40;;
19907;SDS011;10116;53.112;7.356;2022-12-18T15:53:41;4.17;;;3.87;;
19907;SDS011;10116;53.112;7.356;2022-12-18T15:56:11;4.20;;;3.80;;
19907;SDS011;10116;53.112;7.356;2022-12-18T15:58:56;4.47;;;3.93;;
19907;SDS011;10116;53.112;7.356;2022-12-18T16:01:23;3.90;;;3.60;;
19907;SDS011;10116;53.112;7.356;2022-12-18T16:03:50;3.53;;;3.33;;
19907;SDS011;10116;53.112;7.356;2022-12-18T16:06:16;4.20;;;3.80;;
19907;SDS011;10116;53.112;7.356;2022-12-18T16:08:42;4.23;;;3.87;;
19907;SDS011;10116;53.112;7.356;2022-12-18T16:11:24;3.87;;;3.57;;
19907;SDS011;10116;53.112;7.356;2022-12-18T16:14:17;3.97;;;3.67;;
19907;SDS011;10116;53.112;7.356;2022-12-18T16:16:44;4.13;;;3.83;;
19907;SDS011;10116;53.112;7.356;2022-12-18T16:19:10;3.70;;;3.50;;
19907;SDS011;10116;53.112;7.356;2022-12-18T16:21:36;3.73;;;3.40;;
19907;SDS011;10116;53.112;7.356;2022-12-18T16:24:01;3.83;;;3.57;;
19907;SDS011;10116;53.112;7.356;2022-12-18T16:26:27;3.40;;;3.20;;
19907;SDS011;10116;53.112;7.356;2022-12-18T16:28:53;3.97;;;3.67;;
19907;SDS011;10116;53.112;7.356;2022-12-18T16:31:19;3.93;;;3.53;;
19907;SDS011;10116;53.112;7.356;2022-12-18T16:33:45;3.13;;;2.93;;
19907;SDS011;10116;53.112;7.356;2022-12-18T16:36:11;4.00;;;3.70;;
19907;SDS011;10116;53.112;7.356;2022-12-18T16:38:36;4.53;;;3.53;;
19907;SDS011;10116;53.112;7.356;2022-12-18T16:41:04;3.70;;;3.40;;
19907;SDS011;10116;53.112;7.356;2022-12-18T16:44:01;5.90;;;4.27;;
19907;SDS011;10116;53.112;7.356;2022-12-18T16:46:27;8.90;;;4.70;;
19907;SDS011;10116;53.112;7.356;2022-12-18T16:48:54;4.37;;;3.97;;
19907;SDS011;10116;53.112;7.356;2022-12-18T16:51:21;8.07;;;5.03;;
19907;SDS011;10116;53.112;7.356;2022-12-18T16:53:47;7.10;;;5.50;;
19907;SDS011;10116;53.112;7.356;2022-12-18T16:56:12;7.33;;;5.03;;
19907;SDS011;10116;53.112;7.356;2022-12-18T16:58:38;9.37;;;6.27;;
19907;SDS011;10116;53.112;7.356;2022-12-18T17:01:07;6.33;;;5.20;;
19907;SDS011;10116;53.112;7.356;2022-12-18T17:03:34;8.20;;;5.40;;
19907;SDS011;10116;53.112;7.356;2022-12-18T17:06:03;7.50;;;5.20;;
19907;SDS011;10116;53.112;7.356;2022-12-18T17:08:29;6.00;;;4.97;;